sensor_id;sensor_type;location;lat;lon;timestamp;P1;durP1;ratioP1;P2;durP2;ratioP2
56269;SDS011;42176;43.240;27.880;2023-04-01T00:00:47;9.63;;;4.05;;
56269;SDS011;42176;43.240;27.880;2023-04-01T00:03:13;12.75;;;4.05;;
56269;SDS011;42176;43.240;27.880;2023-04-01T00:05:39;9.35;;;4.13;;
56269;SDS011;42176;43.240;27.880;2023-04-01T00:08:04;12.23;;;4.00;;
56269;SDS011;42176;43.240;27.880;2023-04-01T00:10:30;5.20;;;3.80;;
56269;SDS011;42176;43.240;27.880;2023-04-01T00:12:55;7.30;;;4.18;;
56269;SDS011;42176;43.240;27.880;2023-04-01T00:15:21;7.22;;;3.78;;
56269;SDS011;42176;43.240;27.880;2023-04-01T00:17:46;8.20;;;3.42;;
56269;SDS011;42176;43.240;27.880;2023-04-01T00:20:15;8.70;;;3.80;;
56269;SDS011;42176;43.240;27.880;2023-04-01T00:22:41;7.95;;;3.33;;
56269;SDS011;42176;43.240;27.880;2023-04-01T00:25:06;9.35;;;4.07;;
56269;SDS011;42176;43.240;27.880;2023-04-01T00:27:32;5.05;;;3.13;;
56269;SDS011;42176;43.240;27.880;2023-04-01T00:30:05;10.70;;;3.15;;
56269;SDS011;42176;43.240;27.880;2023-04-01T00:32:31;8.82;;;3.42;;
56269;SDS011;42176;43.240;27.880;2023-04-01T00:34:59;4.95;;;2.90;;
56269;SDS011;42176;43.240;27.880;2023-04-01T00:37:25;7.35;;;3.30;;
56269;SDS011;42176;43.240;27.880;2023-04-01T00:39:52;7.63;;;3.65;;
56269;SDS011;42176;43.240;27.880;2023-04-01T00:42:18;14.55;;;3.80;;
56269;SDS011;42176;43.240;27.880;2023-04-01T00:44:45;7.65;;;3.80;;
56269;SDS011;42176;43.240;27.880;2023-04-01T00:47:15;3.45;;;2.60;;
56269;SDS011;42176;43.240;27.880;2023-04-01T00:49:41;4.22;;;2.70;;
56269;SDS011;42176;43.240;27.880;2023-04-01T00:52:11;4.97;;;2.97;;
56269;SDS011;42176;43.240;27.880;2023-04-01T00:54:42;6.15;;;3.13;;
56269;SDS011;42176;43.240;27.880;2023-04-01T00:57:35;7.00;;;3.00;;
56269;SDS011;42176;43.240;27.880;2023-04-01T01:00:03;4.38;;;2.88;;
56269;SDS011;42176;43.240;27.880;2023-04-01T01:02:38;9.77;;;3.08;;
56269;SDS011;42176;43.240;27.880;2023-04-01T01:05:06;5.05;;;2.67;;
56269;SDS011;42176;43.240;27.880;2023-04-01T01:07:38;7.70;;;3.30;;
56269;SDS011;42176;43.240;27.880;2023-04-01T01:13:11;4.82;;;3.13;;
56269;SDS011;42176;43.240;27.880;2023-04-01T01:15:49;5.45;;;3.03;;
56269;SDS011;42176;43.240;27.880;2023-04-01T01:37:49;6.68;;;3.38;;
56269;SDS011;42176;43.240;27.880;2023-04-01T01:40:20;8.52;;;3.72;;
56269;SDS011;42176;43.240;27.880;2023-04-01T01:42:48;5.43;;;3.30;;
56269;SDS011;42176;43.240;27.880;2023-04-01T01:45:18;10.45;;;3.65;;
56269;SDS011;42176;43.240;27.880;2023-04-01T01:47:49;9.80;;;3.92;;
56269;SDS011;42176;43.240;27.880;2023-04-01T01:50:16;3.95;;;3.25;;
56269;SDS011;42176;43.240;27.880;2023-04-01T01:52:42;5.55;;;3.00;;
56269;SDS011;42176;43.240;27.880;2023-04-01T01:57:52;7.32;;;3.95;;
56269;SDS011;42176;43.240;27.880;2023-04-01T02:00:23;8.63;;;4.13;;
56269;SDS011;42176;43.240;27.880;2023-04-01T02:02:49;11.13;;;4.10;;
56269;SDS011;42176;43.240;27.880;2023-04-01T02:05:23;9.93;;;4.07;;
56269;SDS011;42176;43.240;27.880;2023-04-01T02:08:00;10.85;;;4.20;;
56269;SDS011;42176;43.240;27.880;2023-04-01T02:10:31;6.28;;;3.83;;
56269;SDS011;42176;43.240;27.880;2023-04-01T02:13:01;8.80;;;4.30;;
56269;SDS011;42176;43.240;27.880;2023-04-01T02:15:31;5.68;;;3.20;;
56269;SDS011;42176;43.240;27.880;2023-04-01T02:18:02;10.03;;;3.67;;
56269;SDS011;42176;43.240;27.880;2023-04-01T02:20:29;7.32;;;3.65;;
56269;SDS011;42176;43.240;27.880;2023-04-01T02:22:56;5.95;;;3.53;;
56269;SDS011;42176;43.240;27.880;2023-04-01T02:25:30;10.25;;;3.63;;
56269;SDS011;42176;43.240;27.880;2023-04-01T02:27:59;6.82;;;3.03;;
56269;SDS011;42176;43.240;27.880;2023-04-01T02:30:27;4.65;;;3.22;;
56269;SDS011;42176;43.240;27.880;2023-04-01T02:32:55;6.10;;;3.08;;
56269;SDS011;42176;43.240;27.880;2023-04-01T02:35:22;6.47;;;3.00;;
56269;SDS011;42176;43.240;27.880;2023-04-01T02:37:48;6.70;;;3.40;;
56269;SDS011;42176;43.240;27.880;2023-04-01T02:40:17;5.75;;;3.20;;
56269;SDS011;42176;43.240;27.880;2023-04-01T02:42:43;3.67;;;2.33;;
56269;SDS011;42176;43.240;27.880;2023-04-01T02:45:09;4.72;;;2.20;;
56269;SDS011;42176;43.240;27.880;2023-04-01T02:47:35;5.18;;;2.42;;
56269;SDS011;42176;43.240;27.880;2023-04-01T02:50:00;2.95;;;2.65;;
56269;SDS011;42176;43.240;27.880;2023-04-01T02:52:26;3.50;;;2.75;;
56269;SDS011;42176;43.240;27.880;2023-04-01T02:54:54;6.93;;;2.05;;
56269;SDS011;42176;43.240;27.880;2023-04-01T02:57:20;3.40;;;1.90;;
56269;SDS011;42176;43.240;27.880;2023-04-01T02:59:46;4.10;;;2.17;;
56269;SDS011;42176;43.240;27.880;2023-04-01T03:02:11;4.15;;;2.22;;
56269;SDS011;42176;43.240;27.880;2023-04-01T03:04:37;5.15;;;1.90;;
56269;SDS011;42176;43.240;27.880;2023-04-01T03:07:03;8.70;;;2.20;;
56269;SDS011;42176;43.240;27.880;2023-04-01T03:09:28;4.22;;;2.35;;
56269;SDS011;42176;43.240;27.880;2023-04-01T03:11:55;6.10;;;2.90;;
56269;SDS011;42176;43.240;27.880;2023-04-01T03:14:20;8.00;;;2.35;;
56269;SDS011;42176;43.240;27.880;2023-04-01T03:16:46;5.47;;;2.47;;
56269;SDS011;42176;43.240;27.880;2023-04-01T03:19:11;3.45;;;2.05;;
56269;SDS011;42176;43.240;27.880;2023-04-01T03:21:37;4.65;;;2.63;;
56269;SDS011;42176;43.240;27.880;2023-04-01T03:24:02;3.40;;;2.53;;
56269;SDS011;42176;43.240;27.880;2023-04-01T03:26:28;5.07;;;1.98;;
56269;SDS011;42176;43.240;27.880;2023-04-01T03:28:54;7.95;;;2.33;;
56269;SDS011;42176;43.240;27.880;2023-04-01T03:31:20;9.90;;;3.90;;
56269;SDS011;42176;43.240;27.880;2023-04-01T03:33:46;13.77;;;5.88;;
56269;SDS011;42176;43.240;27.880;2023-04-01T03:36:11;41.80;;;12.35;;
56269;SDS011;42176;43.240;27.880;2023-04-01T03:38:38;32.15;;;8.63;;
56269;SDS011;42176;43.240;27.880;2023-04-01T03:41:05;10.02;;;3.85;;
56269;SDS011;42176;43.240;27.880;2023-04-01T03:43:31;2.35;;;1.90;;
56269;SDS011;42176;43.240;27.880;2023-04-01T03:45:57;5.43;;;1.65;;
56269;SDS011;42176;43.240;27.880;2023-04-01T03:48:23;3.58;;;2.17;;
56269;SDS011;42176;43.240;27.880;2023-04-01T03:50:48;5.53;;;2.67;;
56269;SDS011;42176;43.240;27.880;2023-04-01T03:53:13;9.82;;;2.95;;
56269;SDS011;42176;43.240;27.880;2023-04-01T03:55:40;9.23;;;2.13;;
56269;SDS011;42176;43.240;27.880;2023-04-01T03:58:06;3.28;;;2.25;;
56269;SDS011;42176;43.240;27.880;2023-04-01T04:00:32;4.55;;;2.33;;
56269;SDS011;42176;43.240;27.880;2023-04-01T04:02:58;5.32;;;2.17;;
56269;SDS011;42176;43.240;27.880;2023-04-01T04:05:24;2.55;;;1.80;;
56269;SDS011;42176;43.240;27.880;2023-04-01T04:07:51;6.03;;;2.17;;
56269;SDS011;42176;43.240;27.880;2023-04-01T04:10:16;2.53;;;2.05;;
56269;SDS011;42176;43.240;27.880;2023-04-01T04:12:42;13.75;;;5.68;;
56269;SDS011;42176;43.240;27.880;2023-04-01T04:15:08;12.77;;;4.63;;
56269;SDS011;42176;43.240;27.880;2023-04-01T04:17:34;2.63;;;2.13;;
56269;SDS011;42176;43.240;27.880;2023-04-01T04:20:00;4.07;;;2.38;;
56269;SDS011;42176;43.240;27.880;2023-04-01T04:22:26;8.55;;;3.30;;
56269;SDS011;42176;43.240;27.880;2023-04-01T04:24:52;9.85;;;4.60;;
56269;SDS011;42176;43.240;27.880;2023-04-01T04:27:17;9.00;;;4.43;;
56269;SDS011;42176;43.240;27.880;2023-04-01T04:29:43;6.63;;;3.60;;
56269;SDS011;42176;43.240;27.880;2023-04-01T04:32:08;10.95;;;4.97;;
56269;SDS011;42176;43.240;27.880;2023-04-01T04:34:34;13.75;;;4.78;;
56269;SDS011;42176;43.240;27.880;2023-04-01T04:36:59;6.57;;;3.85;;
56269;SDS011;42176;43.240;27.880;2023-04-01T04:39:25;6.93;;;3.97;;
56269;SDS011;42176;43.240;27.880;2023-04-01T04:41:50;6.47;;;2.92;;
56269;SDS011;42176;43.240;27.880;2023-04-01T04:44:16;5.95;;;3.22;;
56269;SDS011;42176;43.240;27.880;2023-04-01T04:46:41;10.90;;;5.88;;
56269;SDS011;42176;43.240;27.880;2023-04-01T04:49:06;14.30;;;6.82;;
56269;SDS011;42176;43.240;27.880;2023-04-01T04:51:32;6.00;;;3.10;;
56269;SDS011;42176;43.240;27.880;2023-04-01T04:54:01;7.10;;;3.45;;
56269;SDS011;42176;43.240;27.880;2023-04-01T04:56:28;22.23;;;9.52;;
56269;SDS011;42176;43.240;27.880;2023-04-01T04:58:53;5.68;;;3.05;;
56269;SDS011;42176;43.240;27.880;2023-04-01T05:01:19;4.78;;;2.60;;
56269;SDS011;42176;43.240;27.880;2023-04-01T05:03:45;5.43;;;2.70;;
56269;SDS011;42176;43.240;27.880;2023-04-01T05:06:12;5.43;;;2.95;;
56269;SDS011;42176;43.240;27.880;2023-04-01T05:08:39;6.22;;;2.80;;
56269;SDS011;42176;43.240;27.880;2023-04-01T05:11:07;7.78;;;3.20;;
56269;SDS011;42176;43.240;27.880;2023-04-01T05:13:37;7.88;;;3.22;;
56269;SDS011;42176;43.240;27.880;2023-04-01T05:16:03;6.60;;;2.50;;
56269;SDS011;42176;43.240;27.880;2023-04-01T05:18:29;12.82;;;3.15;;
56269;SDS011;42176;43.240;27.880;2023-04-01T05:20:57;6.25;;;3.42;;
56269;SDS011;42176;43.240;27.880;2023-04-01T05:23:23;8.80;;;3.13;;
56269;SDS011;42176;43.240;27.880;2023-04-01T05:25:48;5.93;;;2.78;;
56269;SDS011;42176;43.240;27.880;2023-04-01T05:28:15;8.45;;;2.72;;
56269;SDS011;42176;43.240;27.880;2023-04-01T05:30:46;6.22;;;2.85;;
56269;SDS011;42176;43.240;27.880;2023-04-01T05:33:12;7.95;;;2.97;;
56269;SDS011;42176;43.240;27.880;2023-04-01T05:35:38;7.55;;;3.13;;
56269;SDS011;42176;43.240;27.880;2023-04-01T05:38:04;5.90;;;3.15;;
56269;SDS011;42176;43.240;27.880;2023-04-01T05:40:30;13.38;;;3.53;;
56269;SDS011;42176;43.240;27.880;2023-04-01T05:43:02;9.57;;;3.00;;
56269;SDS011;42176;43.240;27.880;2023-04-01T05:45:28;12.95;;;3.42;;
56269;SDS011;42176;43.240;27.880;2023-04-01T05:47:53;5.07;;;2.72;;
56269;SDS011;42176;43.240;27.880;2023-04-01T05:50:19;6.57;;;2.67;;
56269;SDS011;42176;43.240;27.880;2023-04-01T05:52:45;6.25;;;3.65;;
56269;SDS011;42176;43.240;27.880;2023-04-01T05:55:10;5.93;;;3.60;;
56269;SDS011;42176;43.240;27.880;2023-04-01T05:57:36;8.32;;;3.53;;
56269;SDS011;42176;43.240;27.880;2023-04-01T06:00:02;5.68;;;3.35;;
56269;SDS011;42176;43.240;27.880;2023-04-01T06:02:29;11.30;;;3.17;;
56269;SDS011;42176;43.240;27.880;2023-04-01T06:05:03;7.63;;;3.35;;
56269;SDS011;42176;43.240;27.880;2023-04-01T06:07:45;7.68;;;3.03;;
56269;SDS011;42176;43.240;27.880;2023-04-01T06:10:12;10.25;;;3.83;;
56269;SDS011;42176;43.240;27.880;2023-04-01T06:52:13;9.48;;;4.10;;
56269;SDS011;42176;43.240;27.880;2023-04-01T06:54:53;14.52;;;2.70;;
56269;SDS011;42176;43.240;27.880;2023-04-01T06:57:31;9.20;;;3.13;;
56269;SDS011;42176;43.240;27.880;2023-04-01T07:00:04;9.18;;;3.00;;
56269;SDS011;42176;43.240;27.880;2023-04-01T07:02:50;10.65;;;3.30;;
56269;SDS011;42176;43.240;27.880;2023-04-01T07:05:23;10.57;;;2.97;;
56269;SDS011;42176;43.240;27.880;2023-04-01T07:07:50;8.27;;;3.50;;
56269;SDS011;42176;43.240;27.880;2023-04-01T07:10:27;8.82;;;3.20;;
56269;SDS011;42176;43.240;27.880;2023-04-01T07:12:58;6.57;;;3.63;;
56269;SDS011;42176;43.240;27.880;2023-04-01T07:15:30;10.23;;;3.60;;
56269;SDS011;42176;43.240;27.880;2023-04-01T07:18:02;14.85;;;3.47;;
56269;SDS011;42176;43.240;27.880;2023-04-01T07:20:35;6.95;;;3.20;;
56269;SDS011;42176;43.240;27.880;2023-04-01T07:23:03;10.00;;;3.47;;
56269;SDS011;42176;43.240;27.880;2023-04-01T07:25:35;15.98;;;4.38;;
56269;SDS011;42176;43.240;27.880;2023-04-01T07:28:14;5.47;;;3.28;;
56269;SDS011;42176;43.240;27.880;2023-04-01T07:38:52;14.43;;;3.47;;
56269;SDS011;42176;43.240;27.880;2023-04-01T07:41:40;9.50;;;2.92;;
56269;SDS011;42176;43.240;27.880;2023-04-01T07:45:09;5.60;;;2.78;;
56269;SDS011;42176;43.240;27.880;2023-04-01T07:53:03;6.07;;;2.65;;
56269;SDS011;42176;43.240;27.880;2023-04-01T07:59:09;8.32;;;3.47;;
56269;SDS011;42176;43.240;27.880;2023-04-01T08:01:58;6.45;;;3.50;;
56269;SDS011;42176;43.240;27.880;2023-04-01T08:10:44;14.63;;;3.22;;
56269;SDS011;42176;43.240;27.880;2023-04-01T08:21:23;7.32;;;3.00;;
56269;SDS011;42176;43.240;27.880;2023-04-01T08:23:54;6.68;;;3.15;;
56269;SDS011;42176;43.240;27.880;2023-04-01T08:29:40;5.57;;;3.05;;
56269;SDS011;42176;43.240;27.880;2023-04-01T08:32:38;15.27;;;2.78;;
56269;SDS011;42176;43.240;27.880;2023-04-01T08:34:50;7.10;;;3.10;;
56269;SDS011;42176;43.240;27.880;2023-04-01T08:37:35;54.00;;;6.53;;
56269;SDS011;42176;43.240;27.880;2023-04-01T08:51:42;11.38;;;2.83;;
56269;SDS011;42176;43.240;27.880;2023-04-01T08:59:55;7.22;;;3.10;;
56269;SDS011;42176;43.240;27.880;2023-04-01T09:08:38;5.32;;;2.75;;
56269;SDS011;42176;43.240;27.880;2023-04-01T09:27:45;7.20;;;2.97;;
56269;SDS011;42176;43.240;27.880;2023-04-01T09:36:12;5.28;;;2.92;;
56269;SDS011;42176;43.240;27.880;2023-04-01T09:44:36;8.23;;;3.10;;
56269;SDS011;42176;43.240;27.880;2023-04-01T09:47:28;9.30;;;3.45;;
56269;SDS011;42176;43.240;27.880;2023-04-01T10:16:11;11.68;;;3.05;;
56269;SDS011;42176;43.240;27.880;2023-04-01T10:18:55;12.10;;;2.53;;
56269;SDS011;42176;43.240;27.880;2023-04-01T10:27:39;8.65;;;2.70;;
56269;SDS011;42176;43.240;27.880;2023-04-01T10:33:08;7.70;;;3.15;;
56269;SDS011;42176;43.240;27.880;2023-04-01T10:57:56;14.23;;;4.57;;
56269;SDS011;42176;43.240;27.880;2023-04-01T11:00:49;9.45;;;3.78;;
56269;SDS011;42176;43.240;27.880;2023-04-01T11:28:33;12.25;;;4.25;;
56269;SDS011;42176;43.240;27.880;2023-04-01T11:33:47;15.13;;;4.85;;
56269;SDS011;42176;43.240;27.880;2023-04-01T11:39:02;15.70;;;5.70;;
56269;SDS011;42176;43.240;27.880;2023-04-01T11:41:45;14.27;;;4.82;;
56269;SDS011;42176;43.240;27.880;2023-04-01T11:44:26;17.02;;;5.53;;
56269;SDS011;42176;43.240;27.880;2023-04-01T11:47:08;23.38;;;5.30;;
56269;SDS011;42176;43.240;27.880;2023-04-01T11:55:02;8.15;;;5.10;;
56269;SDS011;42176;43.240;27.880;2023-04-01T12:03:28;11.07;;;5.38;;
56269;SDS011;42176;43.240;27.880;2023-04-01T12:12:23;7.70;;;3.47;;
56269;SDS011;42176;43.240;27.880;2023-04-01T12:17:56;12.65;;;4.38;;
56269;SDS011;42176;43.240;27.880;2023-04-01T12:23:22;10.85;;;3.60;;
56269;SDS011;42176;43.240;27.880;2023-04-01T12:35:27;7.85;;;3.33;;
56269;SDS011;42176;43.240;27.880;2023-04-01T12:38:17;14.48;;;4.47;;
56269;SDS011;42176;43.240;27.880;2023-04-01T12:54:52;13.70;;;3.75;;
56269;SDS011;42176;43.240;27.880;2023-04-01T13:05:23;11.70;;;3.92;;
56269;SDS011;42176;43.240;27.880;2023-04-01T13:11:08;10.55;;;3.25;;
56269;SDS011;42176;43.240;27.880;2023-04-01T13:22:11;9.65;;;4.03;;
56269;SDS011;42176;43.240;27.880;2023-04-01T13:27:45;9.55;;;4.22;;
56269;SDS011;42176;43.240;27.880;2023-04-01T13:30:28;11.98;;;4.45;;
56269;SDS011;42176;43.240;27.880;2023-04-01T13:36:36;12.00;;;4.57;;
56269;SDS011;42176;43.240;27.880;2023-04-01T13:44:41;11.68;;;4.20;;
56269;SDS011;42176;43.240;27.880;2023-04-01T13:58:20;10.98;;;3.60;;
56269;SDS011;42176;43.240;27.880;2023-04-01T14:25:46;18.08;;;4.47;;
56269;SDS011;42176;43.240;27.880;2023-04-01T14:28:43;11.98;;;3.80;;
56269;SDS011;42176;43.240;27.880;2023-04-01T14:31:20;12.75;;;4.55;;
56269;SDS011;42176;43.240;27.880;2023-04-01T14:47:46;6.60;;;3.20;;
56269;SDS011;42176;43.240;27.880;2023-04-01T14:50:23;6.05;;;3.38;;
56269;SDS011;42176;43.240;27.880;2023-04-01T15:03:32;16.38;;;4.60;;
56269;SDS011;42176;43.240;27.880;2023-04-01T15:16:53;14.57;;;4.93;;
56269;SDS011;42176;43.240;27.880;2023-04-01T15:24:51;18.23;;;3.85;;
56269;SDS011;42176;43.240;27.880;2023-04-01T15:41:16;11.32;;;4.53;;
56269;SDS011;42176;43.240;27.880;2023-04-01T15:44:01;12.05;;;3.67;;
56269;SDS011;42176;43.240;27.880;2023-04-01T15:54:32;12.63;;;4.45;;
56269;SDS011;42176;43.240;27.880;2023-04-01T15:57:23;13.45;;;4.22;;
56269;SDS011;42176;43.240;27.880;2023-04-01T16:03:38;10.05;;;4.40;;
56269;SDS011;42176;43.240;27.880;2023-04-01T16:06:14;15.75;;;4.82;;
56269;SDS011;42176;43.240;27.880;2023-04-01T16:20:12;13.98;;;5.00;;
56269;SDS011;42176;43.240;27.880;2023-04-01T16:23:04;19.63;;;5.82;;
56269;SDS011;42176;43.240;27.880;2023-04-01T16:26:14;21.92;;;6.10;;
56269;SDS011;42176;43.240;27.880;2023-04-01T16:34:36;18.20;;;4.95;;
56269;SDS011;42176;43.240;27.880;2023-04-01T16:37:08;14.35;;;4.63;;
56269;SDS011;42176;43.240;27.880;2023-04-01T16:42:44;16.40;;;5.03;;
56269;SDS011;42176;43.240;27.880;2023-04-01T16:45:19;20.15;;;5.93;;
56269;SDS011;42176;43.240;27.880;2023-04-01T16:47:47;15.95;;;6.13;;
56269;SDS011;42176;43.240;27.880;2023-04-01T16:50:22;20.38;;;6.47;;
56269;SDS011;42176;43.240;27.880;2023-04-01T16:55:49;19.63;;;6.75;;
56269;SDS011;42176;43.240;27.880;2023-04-01T16:58:59;11.07;;;4.00;;
56269;SDS011;42176;43.240;27.880;2023-04-01T17:01:10;17.48;;;4.78;;
56269;SDS011;42176;43.240;27.880;2023-04-01T17:03:45;14.32;;;3.80;;
56269;SDS011;42176;43.240;27.880;2023-04-01T17:09:04;14.90;;;3.85;;
56269;SDS011;42176;43.240;27.880;2023-04-01T17:11:51;12.35;;;4.25;;
56269;SDS011;42176;43.240;27.880;2023-04-01T17:19:46;20.33;;;4.82;;
56269;SDS011;42176;43.240;27.880;2023-04-01T17:27:51;15.13;;;4.10;;
56269;SDS011;42176;43.240;27.880;2023-04-01T17:30:38;10.52;;;4.05;;
56269;SDS011;42176;43.240;27.880;2023-04-01T17:33:29;14.88;;;4.38;;
56269;SDS011;42176;43.240;27.880;2023-04-01T17:45:00;18.08;;;4.32;;
56269;SDS011;42176;43.240;27.880;2023-04-01T17:47:47;17.17;;;3.60;;
56269;SDS011;42176;43.240;27.880;2023-04-01T17:53:50;16.95;;;4.10;;
56269;SDS011;42176;43.240;27.880;2023-04-01T18:18:26;9.95;;;3.97;;
56269;SDS011;42176;43.240;27.880;2023-04-01T18:21:04;19.60;;;5.50;;
56269;SDS011;42176;43.240;27.880;2023-04-01T18:26:43;11.65;;;3.97;;
56269;SDS011;42176;43.240;27.880;2023-04-01T18:31:54;17.83;;;4.78;;
56269;SDS011;42176;43.240;27.880;2023-04-01T18:40:19;16.45;;;3.80;;
56269;SDS011;42176;43.240;27.880;2023-04-01T18:45:40;11.50;;;4.75;;
56269;SDS011;42176;43.240;27.880;2023-04-01T18:51:20;11.18;;;4.57;;
56269;SDS011;42176;43.240;27.880;2023-04-01T18:53:56;20.50;;;6.07;;
56269;SDS011;42176;43.240;27.880;2023-04-01T19:01:33;12.63;;;3.95;;
56269;SDS011;42176;43.240;27.880;2023-04-01T19:04:45;11.07;;;4.40;;
56269;SDS011;42176;43.240;27.880;2023-04-01T19:10:15;8.13;;;4.53;;
56269;SDS011;42176;43.240;27.880;2023-04-01T19:12:43;8.02;;;4.18;;
56269;SDS011;42176;43.240;27.880;2023-04-01T19:21:29;6.68;;;3.63;;
56269;SDS011;42176;43.240;27.880;2023-04-01T19:24:00;9.60;;;3.70;;
56269;SDS011;42176;43.240;27.880;2023-04-01T19:29:46;5.55;;;3.78;;
56269;SDS011;42176;43.240;27.880;2023-04-01T19:37:54;10.68;;;6.55;;
56269;SDS011;42176;43.240;27.880;2023-04-01T19:43:15;10.02;;;4.45;;
56269;SDS011;42176;43.240;27.880;2023-04-01T19:51:15;5.43;;;2.70;;
56269;SDS011;42176;43.240;27.880;2023-04-01T19:57:02;9.07;;;3.03;;
56269;SDS011;42176;43.240;27.880;2023-04-01T19:59:45;6.60;;;3.00;;
56269;SDS011;42176;43.240;27.880;2023-04-01T20:02:28;5.57;;;1.90;;
56269;SDS011;42176;43.240;27.880;2023-04-01T20:07:52;2.33;;;1.38;;
56269;SDS011;42176;43.240;27.880;2023-04-01T20:10:35;4.22;;;1.75;;
56269;SDS011;42176;43.240;27.880;2023-04-01T20:15:42;3.30;;;1.45;;
56269;SDS011;42176;43.240;27.880;2023-04-01T20:18:26;2.47;;;1.88;;
56269;SDS011;42176;43.240;27.880;2023-04-01T20:26:11;5.68;;;1.98;;
56269;SDS011;42176;43.240;27.880;2023-04-01T20:28:57;4.25;;;2.13;;
56269;SDS011;42176;43.240;27.880;2023-04-01T20:31:24;1.85;;;1.40;;
56269;SDS011;42176;43.240;27.880;2023-04-01T20:56:27;2.40;;;1.67;;
56269;SDS011;42176;43.240;27.880;2023-04-01T21:07:28;2.35;;;1.85;;
56269;SDS011;42176;43.240;27.880;2023-04-01T21:10:36;4.43;;;1.77;;
56269;SDS011;42176;43.240;27.880;2023-04-01T21:15:50;3.08;;;2.13;;
56269;SDS011;42176;43.240;27.880;2023-04-01T21:32:20;6.13;;;4.55;;
56269;SDS011;42176;43.240;27.880;2023-04-01T21:38:56;10.60;;;4.88;;
56269;SDS011;42176;43.240;27.880;2023-04-01T21:57:41;12.38;;;5.85;;
56269;SDS011;42176;43.240;27.880;2023-04-01T22:00:32;12.52;;;6.60;;
56269;SDS011;42176;43.240;27.880;2023-04-01T22:03:19;9.50;;;6.25;;
56269;SDS011;42176;43.240;27.880;2023-04-01T22:06:10;10.30;;;6.45;;
56269;SDS011;42176;43.240;27.880;2023-04-01T22:25:02;10.02;;;6.45;;
56269;SDS011;42176;43.240;27.880;2023-04-01T22:38:53;8.15;;;5.57;;
56269;SDS011;42176;43.240;27.880;2023-04-01T22:41:41;9.65;;;6.07;;
56269;SDS011;42176;43.240;27.880;2023-04-01T22:55:31;11.38;;;6.15;;
56269;SDS011;42176;43.240;27.880;2023-04-01T22:58:04;13.32;;;6.80;;
56269;SDS011;42176;43.240;27.880;2023-04-01T23:00:52;10.32;;;6.60;;
56269;SDS011;42176;43.240;27.880;2023-04-01T23:03:24;13.57;;;5.97;;
56269;SDS011;42176;43.240;27.880;2023-04-01T23:05:54;14.00;;;6.38;;
56269;SDS011;42176;43.240;27.880;2023-04-01T23:13:54;11.23;;;5.20;;
56269;SDS011;42176;43.240;27.880;2023-04-01T23:16:28;12.48;;;5.75;;
56269;SDS011;42176;43.240;27.880;2023-04-01T23:33:35;2.45;;;1.40;;
56269;SDS011;42176;43.240;27.880;2023-04-01T23:38:39;1.10;;;0.60;;
56269;SDS011;42176;43.240;27.880;2023-04-01T23:41:06;0.65;;;0.60;;
56269;SDS011;42176;43.240;27.880;2023-04-01T23:43:50;2.50;;;0.50;;
56269;SDS011;42176;43.240;27.880;2023-04-01T23:46:21;0.30;;;0.30;;
56269;SDS011;42176;43.240;27.880;2023-04-01T23:48:47;1.85;;;0.40;;
56269;SDS011;42176;43.240;27.880;2023-04-01T23:51:24;0.57;;;0.28;;
56269;SDS011;42176;43.240;27.880;2023-04-01T23:54:02;0.82;;;0.50;;
56269;SDS011;42176;43.240;27.880;2023-04-01T23:56:40;0.70;;;0.50;;
56269;SDS011;42176;43.240;27.880;2023-04-01T23:59:14;0.40;;;0.40;;
